sensor_id;sensor_type;location;lat;lon;timestamp;P1;durP1;ratioP1;P2;durP2;ratioP2
10045;SDS011;5063;50.878;4.742;2022-10-16T00:01:35;5.10;;;1.80;;
10045;SDS011;5063;50.878;4.742;2022-10-16T00:04:01;4.47;;;2.33;;
10045;SDS011;5063;50.878;4.742;2022-10-16T00:06:27;3.63;;;2.30;;
10045;SDS011;5063;50.878;4.742;2022-10-16T00:08:54;3.33;;;2.17;;
10045;SDS011;5063;50.878;4.742;2022-10-16T00:11:24;2.93;;;2.20;;
10045;SDS011;5063;50.878;4.742;2022-10-16T00:13:54;4.43;;;2.07;;
10045;SDS011;5063;50.878;4.742;2022-10-16T00:16:22;3.83;;;2.10;;
10045;SDS011;5063;50.878;4.742;2022-10-16T00:18:47;4.00;;;2.20;;
10045;SDS011;5063;50.878;4.742;2022-10-16T00:21:14;4.67;;;1.77;;
10045;SDS011;5063;50.878;4.742;2022-10-16T00:23:41;4.67;;;2.33;;
10045;SDS011;5063;50.878;4.742;2022-10-16T00:26:09;3.50;;;2.10;;
10045;SDS011;5063;50.878;4.742;2022-10-16T00:28:37;4.57;;;1.83;;
10045;SDS011;5063;50.878;4.742;2022-10-16T00:31:06;4.93;;;1.73;;
10045;SDS011;5063;50.878;4.742;2022-10-16T00:33:35;6.30;;;1.83;;
10045;SDS011;5063;50.878;4.742;2022-10-16T00:36:02;1.87;;;1.67;;
10045;SDS011;5063;50.878;4.742;2022-10-16T00:38:29;2.20;;;1.53;;
10045;SDS011;5063;50.878;4.742;2022-10-16T00:40:55;7.83;;;1.77;;
10045;SDS011;5063;50.878;4.742;2022-10-16T00:43:40;2.97;;;1.80;;
10045;SDS011;5063;50.878;4.742;2022-10-16T00:49:05;2.83;;;1.70;;
10045;SDS011;5063;50.878;4.742;2022-10-16T00:51:52;1.67;;;1.40;;
10045;SDS011;5063;50.878;4.742;2022-10-16T00:56:50;2.27;;;1.30;;
10045;SDS011;5063;50.878;4.742;2022-10-16T00:59:18;2.20;;;1.80;;
10045;SDS011;5063;50.878;4.742;2022-10-16T01:01:50;1.50;;;1.40;;
10045;SDS011;5063;50.878;4.742;2022-10-16T01:04:17;1.60;;;1.50;;
10045;SDS011;5063;50.878;4.742;2022-10-16T01:06:47;1.77;;;1.27;;
10045;SDS011;5063;50.878;4.742;2022-10-16T01:12:44;4.40;;;1.47;;
10045;SDS011;5063;50.878;4.742;2022-10-16T01:18:00;1.53;;;1.00;;
10045;SDS011;5063;50.878;4.742;2022-10-16T01:20:33;1.53;;;1.37;;
10045;SDS011;5063;50.878;4.742;2022-10-16T01:23:09;1.43;;;1.10;;
10045;SDS011;5063;50.878;4.742;2022-10-16T01:31:42;1.20;;;1.10;;
10045;SDS011;5063;50.878;4.742;2022-10-16T01:34:47;2.17;;;1.10;;
10045;SDS011;5063;50.878;4.742;2022-10-16T01:37:14;2.27;;;0.97;;
10045;SDS011;5063;50.878;4.742;2022-10-16T01:39:45;2.60;;;1.07;;
10045;SDS011;5063;50.878;4.742;2022-10-16T01:42:16;1.33;;;1.20;;
10045;SDS011;5063;50.878;4.742;2022-10-16T01:44:47;2.33;;;1.27;;
10045;SDS011;5063;50.878;4.742;2022-10-16T01:47:15;2.60;;;1.30;;
10045;SDS011;5063;50.878;4.742;2022-10-16T01:49:43;0.80;;;0.80;;
10045;SDS011;5063;50.878;4.742;2022-10-16T01:52:12;1.20;;;1.10;;
10045;SDS011;5063;50.878;4.742;2022-10-16T01:54:43;2.97;;;1.20;;
10045;SDS011;5063;50.878;4.742;2022-10-16T01:57:12;1.70;;;1.57;;
10045;SDS011;5063;50.878;4.742;2022-10-16T01:59:42;1.20;;;1.10;;
10045;SDS011;5063;50.878;4.742;2022-10-16T02:02:12;3.73;;;1.00;;
10045;SDS011;5063;50.878;4.742;2022-10-16T02:04:42;1.07;;;1.07;;
10045;SDS011;5063;50.878;4.742;2022-10-16T02:07:11;3.13;;;1.30;;
10045;SDS011;5063;50.878;4.742;2022-10-16T02:09:37;1.30;;;1.20;;
10045;SDS011;5063;50.878;4.742;2022-10-16T02:12:38;2.87;;;1.33;;
10045;SDS011;5063;50.878;4.742;2022-10-16T02:14:58;2.30;;;1.27;;
10045;SDS011;5063;50.878;4.742;2022-10-16T02:17:23;1.63;;;1.27;;
10045;SDS011;5063;50.878;4.742;2022-10-16T02:19:50;2.37;;;1.40;;
10045;SDS011;5063;50.878;4.742;2022-10-16T02:22:21;4.40;;;1.30;;
10045;SDS011;5063;50.878;4.742;2022-10-16T02:24:59;1.27;;;1.17;;
10045;SDS011;5063;50.878;4.742;2022-10-16T02:31:00;1.97;;;1.30;;
10045;SDS011;5063;50.878;4.742;2022-10-16T02:33:07;2.30;;;1.33;;
10045;SDS011;5063;50.878;4.742;2022-10-16T02:35:35;7.47;;;1.40;;
10045;SDS011;5063;50.878;4.742;2022-10-16T02:38:03;2.13;;;1.30;;
10045;SDS011;5063;50.878;4.742;2022-10-16T02:40:29;1.70;;;1.00;;
10045;SDS011;5063;50.878;4.742;2022-10-16T02:42:55;2.90;;;1.70;;
10045;SDS011;5063;50.878;4.742;2022-10-16T02:45:22;1.93;;;1.57;;
10045;SDS011;5063;50.878;4.742;2022-10-16T02:47:48;2.87;;;1.40;;
10045;SDS011;5063;50.878;4.742;2022-10-16T02:50:14;2.00;;;1.60;;
10045;SDS011;5063;50.878;4.742;2022-10-16T02:52:40;2.27;;;1.27;;
10045;SDS011;5063;50.878;4.742;2022-10-16T02:55:06;4.70;;;1.40;;
10045;SDS011;5063;50.878;4.742;2022-10-16T02:57:32;1.80;;;1.20;;
10045;SDS011;5063;50.878;4.742;2022-10-16T02:59:58;3.77;;;1.47;;
10045;SDS011;5063;50.878;4.742;2022-10-16T03:02:24;3.23;;;1.43;;
10045;SDS011;5063;50.878;4.742;2022-10-16T03:04:50;4.13;;;1.60;;
10045;SDS011;5063;50.878;4.742;2022-10-16T03:07:16;4.33;;;1.50;;
10045;SDS011;5063;50.878;4.742;2022-10-16T03:09:42;1.67;;;1.57;;
10045;SDS011;5063;50.878;4.742;2022-10-16T03:12:08;1.77;;;1.50;;
10045;SDS011;5063;50.878;4.742;2022-10-16T03:14:33;1.77;;;1.50;;
10045;SDS011;5063;50.878;4.742;2022-10-16T03:16:59;1.63;;;1.30;;
10045;SDS011;5063;50.878;4.742;2022-10-16T03:19:25;5.80;;;1.40;;
10045;SDS011;5063;50.878;4.742;2022-10-16T03:21:50;2.23;;;1.37;;
10045;SDS011;5063;50.878;4.742;2022-10-16T03:24:16;2.47;;;1.17;;
10045;SDS011;5063;50.878;4.742;2022-10-16T03:26:42;2.00;;;1.63;;
10045;SDS011;5063;50.878;4.742;2022-10-16T03:29:07;3.40;;;1.30;;
10045;SDS011;5063;50.878;4.742;2022-10-16T03:31:33;1.57;;;1.47;;
10045;SDS011;5063;50.878;4.742;2022-10-16T03:33:59;3.30;;;1.50;;
10045;SDS011;5063;50.878;4.742;2022-10-16T03:36:25;3.70;;;1.40;;
10045;SDS011;5063;50.878;4.742;2022-10-16T03:38:50;2.70;;;1.30;;
10045;SDS011;5063;50.878;4.742;2022-10-16T03:41:16;3.13;;;1.43;;
10045;SDS011;5063;50.878;4.742;2022-10-16T03:43:42;1.40;;;1.30;;
10045;SDS011;5063;50.878;4.742;2022-10-16T03:46:07;1.40;;;1.30;;
10045;SDS011;5063;50.878;4.742;2022-10-16T03:48:33;3.17;;;1.80;;
10045;SDS011;5063;50.878;4.742;2022-10-16T03:50:59;4.87;;;1.83;;
10045;SDS011;5063;50.878;4.742;2022-10-16T03:53:25;4.83;;;1.57;;
10045;SDS011;5063;50.878;4.742;2022-10-16T03:55:51;2.70;;;1.77;;
10045;SDS011;5063;50.878;4.742;2022-10-16T03:58:16;2.73;;;1.50;;
10045;SDS011;5063;50.878;4.742;2022-10-16T04:00:43;1.67;;;1.57;;
10045;SDS011;5063;50.878;4.742;2022-10-16T04:03:10;2.03;;;1.70;;
10045;SDS011;5063;50.878;4.742;2022-10-16T04:05:36;2.93;;;1.60;;
10045;SDS011;5063;50.878;4.742;2022-10-16T04:08:02;3.17;;;1.63;;
10045;SDS011;5063;50.878;4.742;2022-10-16T04:10:27;4.93;;;1.67;;
10045;SDS011;5063;50.878;4.742;2022-10-16T04:12:53;2.40;;;1.87;;
10045;SDS011;5063;50.878;4.742;2022-10-16T04:15:24;2.63;;;1.60;;
10045;SDS011;5063;50.878;4.742;2022-10-16T04:17:51;3.23;;;2.00;;
10045;SDS011;5063;50.878;4.742;2022-10-16T04:20:17;2.60;;;2.00;;
10045;SDS011;5063;50.878;4.742;2022-10-16T04:22:44;3.33;;;2.07;;
10045;SDS011;5063;50.878;4.742;2022-10-16T04:25:10;4.20;;;2.40;;
10045;SDS011;5063;50.878;4.742;2022-10-16T04:27:37;7.83;;;2.53;;
10045;SDS011;5063;50.878;4.742;2022-10-16T04:30:03;8.33;;;2.50;;
10045;SDS011;5063;50.878;4.742;2022-10-16T04:32:29;3.93;;;2.30;;
10045;SDS011;5063;50.878;4.742;2022-10-16T04:34:54;7.03;;;2.20;;
10045;SDS011;5063;50.878;4.742;2022-10-16T04:37:24;3.63;;;2.40;;
10045;SDS011;5063;50.878;4.742;2022-10-16T04:39:51;4.43;;;2.40;;
10045;SDS011;5063;50.878;4.742;2022-10-16T04:42:18;4.27;;;2.33;;
10045;SDS011;5063;50.878;4.742;2022-10-16T04:44:44;4.93;;;2.50;;
10045;SDS011;5063;50.878;4.742;2022-10-16T04:47:10;2.93;;;2.07;;
10045;SDS011;5063;50.878;4.742;2022-10-16T04:49:36;3.60;;;2.50;;
10045;SDS011;5063;50.878;4.742;2022-10-16T04:52:02;4.50;;;2.50;;
10045;SDS011;5063;50.878;4.742;2022-10-16T04:54:28;7.00;;;2.00;;
10045;SDS011;5063;50.878;4.742;2022-10-16T04:56:54;4.17;;;2.30;;
10045;SDS011;5063;50.878;4.742;2022-10-16T04:59:19;4.60;;;2.30;;
10045;SDS011;5063;50.878;4.742;2022-10-16T05:01:45;7.10;;;3.27;;
10045;SDS011;5063;50.878;4.742;2022-10-16T05:04:11;4.03;;;2.03;;
10045;SDS011;5063;50.878;4.742;2022-10-16T05:06:37;4.13;;;2.40;;
10045;SDS011;5063;50.878;4.742;2022-10-16T05:09:04;5.00;;;2.20;;
10045;SDS011;5063;50.878;4.742;2022-10-16T05:11:30;2.43;;;2.10;;
10045;SDS011;5063;50.878;4.742;2022-10-16T05:13:56;7.03;;;2.03;;
10045;SDS011;5063;50.878;4.742;2022-10-16T05:16:22;2.03;;;1.83;;
10045;SDS011;5063;50.878;4.742;2022-10-16T05:18:47;2.30;;;2.07;;
10045;SDS011;5063;50.878;4.742;2022-10-16T05:21:13;3.53;;;2.10;;
10045;SDS011;5063;50.878;4.742;2022-10-16T05:23:39;2.20;;;2.00;;
10045;SDS011;5063;50.878;4.742;2022-10-16T05:26:04;2.30;;;1.63;;
10045;SDS011;5063;50.878;4.742;2022-10-16T05:28:30;8.03;;;2.20;;
10045;SDS011;5063;50.878;4.742;2022-10-16T05:30:56;2.50;;;2.17;;
10045;SDS011;5063;50.878;4.742;2022-10-16T05:33:24;3.83;;;2.03;;
10045;SDS011;5063;50.878;4.742;2022-10-16T05:35:51;6.57;;;2.30;;
10045;SDS011;5063;50.878;4.742;2022-10-16T05:38:17;7.10;;;2.13;;
10045;SDS011;5063;50.878;4.742;2022-10-16T05:40:43;2.80;;;2.10;;
10045;SDS011;5063;50.878;4.742;2022-10-16T05:43:15;6.83;;;2.57;;
10045;SDS011;5063;50.878;4.742;2022-10-16T05:45:40;2.80;;;1.80;;
10045;SDS011;5063;50.878;4.742;2022-10-16T05:48:06;3.97;;;2.10;;
10045;SDS011;5063;50.878;4.742;2022-10-16T05:50:32;3.07;;;2.47;;
10045;SDS011;5063;50.878;4.742;2022-10-16T05:52:57;2.30;;;2.10;;
10045;SDS011;5063;50.878;4.742;2022-10-16T05:55:23;3.23;;;1.80;;
10045;SDS011;5063;50.878;4.742;2022-10-16T05:57:49;3.13;;;2.20;;
10045;SDS011;5063;50.878;4.742;2022-10-16T06:00:14;4.10;;;2.00;;
10045;SDS011;5063;50.878;4.742;2022-10-16T06:02:40;6.33;;;2.10;;
10045;SDS011;5063;50.878;4.742;2022-10-16T06:05:06;2.93;;;2.30;;
10045;SDS011;5063;50.878;4.742;2022-10-16T06:07:33;3.53;;;2.30;;
10045;SDS011;5063;50.878;4.742;2022-10-16T06:10:00;3.97;;;2.17;;
10045;SDS011;5063;50.878;4.742;2022-10-16T06:12:26;3.17;;;2.53;;
10045;SDS011;5063;50.878;4.742;2022-10-16T06:14:52;3.40;;;2.43;;
10045;SDS011;5063;50.878;4.742;2022-10-16T06:17:18;2.80;;;2.47;;
10045;SDS011;5063;50.878;4.742;2022-10-16T06:19:43;3.33;;;2.10;;
10045;SDS011;5063;50.878;4.742;2022-10-16T06:22:09;3.37;;;2.17;;
10045;SDS011;5063;50.878;4.742;2022-10-16T06:24:35;3.53;;;1.80;;
10045;SDS011;5063;50.878;4.742;2022-10-16T06:27:02;2.50;;;1.80;;
10045;SDS011;5063;50.878;4.742;2022-10-16T06:29:29;3.53;;;2.30;;
10045;SDS011;5063;50.878;4.742;2022-10-16T06:31:54;3.40;;;2.53;;
10045;SDS011;5063;50.878;4.742;2022-10-16T06:34:20;2.47;;;2.27;;
10045;SDS011;5063;50.878;4.742;2022-10-16T06:36:46;2.90;;;2.57;;
10045;SDS011;5063;50.878;4.742;2022-10-16T06:39:11;4.20;;;2.33;;
10045;SDS011;5063;50.878;4.742;2022-10-16T06:41:37;2.67;;;2.47;;
10045;SDS011;5063;50.878;4.742;2022-10-16T06:44:06;4.10;;;2.30;;
10045;SDS011;5063;50.878;4.742;2022-10-16T06:46:33;3.50;;;2.23;;
10045;SDS011;5063;50.878;4.742;2022-10-16T06:48:59;3.07;;;2.40;;
10045;SDS011;5063;50.878;4.742;2022-10-16T06:51:24;5.90;;;2.07;;
10045;SDS011;5063;50.878;4.742;2022-10-16T06:53:54;5.77;;;2.33;;
10045;SDS011;5063;50.878;4.742;2022-10-16T06:56:24;2.60;;;2.37;;
10045;SDS011;5063;50.878;4.742;2022-10-16T06:58:51;5.70;;;2.83;;
10045;SDS011;5063;50.878;4.742;2022-10-16T07:01:18;4.40;;;2.57;;
10045;SDS011;5063;50.878;4.742;2022-10-16T07:03:47;5.57;;;2.40;;
10045;SDS011;5063;50.878;4.742;2022-10-16T07:06:14;5.77;;;2.57;;
10045;SDS011;5063;50.878;4.742;2022-10-16T07:08:42;3.03;;;2.73;;
10045;SDS011;5063;50.878;4.742;2022-10-16T07:11:10;2.87;;;2.33;;
10045;SDS011;5063;50.878;4.742;2022-10-16T07:13:38;3.10;;;2.37;;
10045;SDS011;5063;50.878;4.742;2022-10-16T07:16:12;4.97;;;2.23;;
10045;SDS011;5063;50.878;4.742;2022-10-16T07:18:41;3.50;;;2.37;;
10045;SDS011;5063;50.878;4.742;2022-10-16T07:21:13;4.67;;;2.23;;
10045;SDS011;5063;50.878;4.742;2022-10-16T07:23:44;2.50;;;1.97;;
10045;SDS011;5063;50.878;4.742;2022-10-16T07:26:10;4.63;;;2.30;;
10045;SDS011;5063;50.878;4.742;2022-10-16T07:28:36;5.63;;;1.87;;
10045;SDS011;5063;50.878;4.742;2022-10-16T07:31:09;4.07;;;2.30;;
10045;SDS011;5063;50.878;4.742;2022-10-16T07:33:36;2.97;;;2.10;;
10045;SDS011;5063;50.878;4.742;2022-10-16T07:36:03;3.30;;;2.27;;
10045;SDS011;5063;50.878;4.742;2022-10-16T07:38:29;3.10;;;2.10;;
10045;SDS011;5063;50.878;4.742;2022-10-16T07:40:59;2.40;;;2.00;;
10045;SDS011;5063;50.878;4.742;2022-10-16T07:43:26;3.17;;;1.93;;
10045;SDS011;5063;50.878;4.742;2022-10-16T07:45:52;3.03;;;1.83;;
10045;SDS011;5063;50.878;4.742;2022-10-16T07:48:19;5.23;;;2.00;;
10045;SDS011;5063;50.878;4.742;2022-10-16T07:50:44;4.83;;;1.90;;
10045;SDS011;5063;50.878;4.742;2022-10-16T07:53:11;3.37;;;2.23;;
10045;SDS011;5063;50.878;4.742;2022-10-16T07:55:37;2.50;;;1.93;;
10045;SDS011;5063;50.878;4.742;2022-10-16T07:58:03;3.80;;;2.23;;
10045;SDS011;5063;50.878;4.742;2022-10-16T08:00:29;4.17;;;2.17;;
10045;SDS011;5063;50.878;4.742;2022-10-16T08:02:56;2.30;;;2.10;;
10045;SDS011;5063;50.878;4.742;2022-10-16T08:05:25;2.67;;;2.33;;
10045;SDS011;5063;50.878;4.742;2022-10-16T08:07:52;3.50;;;2.30;;
10045;SDS011;5063;50.878;4.742;2022-10-16T08:10:18;3.70;;;2.20;;
10045;SDS011;5063;50.878;4.742;2022-10-16T08:12:45;1.93;;;1.77;;
10045;SDS011;5063;50.878;4.742;2022-10-16T08:15:11;2.83;;;2.00;;
10045;SDS011;5063;50.878;4.742;2022-10-16T08:17:37;3.53;;;2.00;;
10045;SDS011;5063;50.878;4.742;2022-10-16T08:20:03;5.10;;;2.30;;
10045;SDS011;5063;50.878;4.742;2022-10-16T08:22:29;4.90;;;2.23;;
10045;SDS011;5063;50.878;4.742;2022-10-16T08:24:55;4.80;;;2.07;;
10045;SDS011;5063;50.878;4.742;2022-10-16T08:27:21;2.57;;;1.73;;
10045;SDS011;5063;50.878;4.742;2022-10-16T08:29:48;4.10;;;1.60;;
10045;SDS011;5063;50.878;4.742;2022-10-16T08:32:13;4.27;;;1.73;;
10045;SDS011;5063;50.878;4.742;2022-10-16T08:34:39;2.47;;;1.60;;
10045;SDS011;5063;50.878;4.742;2022-10-16T08:37:05;5.23;;;1.80;;
10045;SDS011;5063;50.878;4.742;2022-10-16T08:39:33;5.00;;;1.80;;
10045;SDS011;5063;50.878;4.742;2022-10-16T08:50:31;4.67;;;1.57;;
10045;SDS011;5063;50.878;4.742;2022-10-16T08:52:35;7.60;;;1.60;;
10045;SDS011;5063;50.878;4.742;2022-10-16T08:55:08;4.23;;;1.37;;
10045;SDS011;5063;50.878;4.742;2022-10-16T08:57:52;4.60;;;1.83;;
10045;SDS011;5063;50.878;4.742;2022-10-16T09:00:18;3.77;;;1.80;;
10045;SDS011;5063;50.878;4.742;2022-10-16T09:02:45;2.80;;;1.90;;
10045;SDS011;5063;50.878;4.742;2022-10-16T09:10:58;5.87;;;1.80;;
10045;SDS011;5063;50.878;4.742;2022-10-16T09:16:22;2.50;;;1.40;;
10045;SDS011;5063;50.878;4.742;2022-10-16T09:21:37;1.70;;;1.50;;
10045;SDS011;5063;50.878;4.742;2022-10-16T09:24:16;2.57;;;1.30;;
10045;SDS011;5063;50.878;4.742;2022-10-16T09:26:44;2.93;;;1.40;;
10045;SDS011;5063;50.878;4.742;2022-10-16T09:29:11;1.97;;;1.40;;
10045;SDS011;5063;50.878;4.742;2022-10-16T09:31:39;1.80;;;1.30;;
10045;SDS011;5063;50.878;4.742;2022-10-16T09:34:05;2.50;;;1.30;;
10045;SDS011;5063;50.878;4.742;2022-10-16T09:36:40;2.50;;;1.20;;
10045;SDS011;5063;50.878;4.742;2022-10-16T09:39:09;2.60;;;1.20;;
10045;SDS011;5063;50.878;4.742;2022-10-16T09:41:41;2.60;;;1.60;;
10045;SDS011;5063;50.878;4.742;2022-10-16T09:47:15;1.63;;;1.00;;
10045;SDS011;5063;50.878;4.742;2022-10-16T09:52:23;4.50;;;1.63;;
10045;SDS011;5063;50.878;4.742;2022-10-16T09:54:53;3.77;;;1.27;;
10045;SDS011;5063;50.878;4.742;2022-10-16T09:57:23;2.10;;;0.87;;
10045;SDS011;5063;50.878;4.742;2022-10-16T09:59:50;4.17;;;1.63;;
10045;SDS011;5063;50.878;4.742;2022-10-16T10:02:18;4.03;;;1.10;;
10045;SDS011;5063;50.878;4.742;2022-10-16T10:05:00;7.63;;;1.50;;
10045;SDS011;5063;50.878;4.742;2022-10-16T10:07:32;2.07;;;1.53;;
10045;SDS011;5063;50.878;4.742;2022-10-16T10:10:03;4.50;;;1.70;;
10045;SDS011;5063;50.878;4.742;2022-10-16T10:12:30;4.40;;;1.73;;
10045;SDS011;5063;50.878;4.742;2022-10-16T10:15:03;3.07;;;1.30;;
10045;SDS011;5063;50.878;4.742;2022-10-16T10:17:31;2.50;;;1.13;;
10045;SDS011;5063;50.878;4.742;2022-10-16T10:20:01;3.47;;;1.20;;
10045;SDS011;5063;50.878;4.742;2022-10-16T10:22:49;3.37;;;1.47;;
10045;SDS011;5063;50.878;4.742;2022-10-16T10:26:03;2.80;;;1.20;;
10045;SDS011;5063;50.878;4.742;2022-10-16T10:31:03;6.77;;;1.90;;
10045;SDS011;5063;50.878;4.742;2022-10-16T10:36:08;4.07;;;1.40;;
10045;SDS011;5063;50.878;4.742;2022-10-16T10:39:00;4.57;;;1.45;;
10045;SDS011;5063;50.878;4.742;2022-10-16T10:41:38;1.83;;;1.23;;
10045;SDS011;5063;50.878;4.742;2022-10-16T10:47:24;4.85;;;1.85;;
10045;SDS011;5063;50.878;4.742;2022-10-16T11:01:16;3.10;;;1.20;;
10045;SDS011;5063;50.878;4.742;2022-10-16T11:04:01;4.80;;;1.60;;
10045;SDS011;5063;50.878;4.742;2022-10-16T11:06:50;3.00;;;1.48;;
10045;SDS011;5063;50.878;4.742;2022-10-16T11:09:27;3.90;;;1.40;;
10045;SDS011;5063;50.878;4.742;2022-10-16T11:12:00;2.05;;;1.23;;
10045;SDS011;5063;50.878;4.742;2022-10-16T11:17:28;5.33;;;2.03;;
10045;SDS011;5063;50.878;4.742;2022-10-16T11:23:18;4.90;;;1.25;;
10045;SDS011;5063;50.878;4.742;2022-10-16T11:25:39;5.97;;;1.77;;
10045;SDS011;5063;50.878;4.742;2022-10-16T11:28:15;2.60;;;1.00;;
10045;SDS011;5063;50.878;4.742;2022-10-16T11:33:38;2.40;;;1.10;;
10045;SDS011;5063;50.878;4.742;2022-10-16T11:38:51;2.10;;;1.27;;
10045;SDS011;5063;50.878;4.742;2022-10-16T11:44:27;4.57;;;1.38;;
10045;SDS011;5063;50.878;4.742;2022-10-16T11:47:05;2.72;;;1.17;;
10045;SDS011;5063;50.878;4.742;2022-10-16T11:49:36;1.23;;;1.02;;
10045;SDS011;5063;50.878;4.742;2022-10-16T11:52:25;3.80;;;1.30;;
10045;SDS011;5063;50.878;4.742;2022-10-16T11:54:56;4.47;;;1.38;;
10045;SDS011;5063;50.878;4.742;2022-10-16T11:57:27;4.78;;;1.38;;
10045;SDS011;5063;50.878;4.742;2022-10-16T12:08:35;1.20;;;0.98;;
10045;SDS011;5063;50.878;4.742;2022-10-16T12:11:08;1.48;;;0.60;;
10045;SDS011;5063;50.878;4.742;2022-10-16T12:13:47;4.82;;;1.48;;
10045;SDS011;5063;50.878;4.742;2022-10-16T12:18:39;1.52;;;1.00;;
10045;SDS011;5063;50.878;4.742;2022-10-16T12:21:06;5.22;;;1.30;;
10045;SDS011;5063;50.878;4.742;2022-10-16T12:23:36;1.63;;;0.95;;
10045;SDS011;5063;50.878;4.742;2022-10-16T12:26:03;3.78;;;1.17;;
10045;SDS011;5063;50.878;4.742;2022-10-16T12:28:30;1.33;;;1.17;;
10045;SDS011;5063;50.878;4.742;2022-10-16T12:30:58;2.63;;;1.33;;
10045;SDS011;5063;50.878;4.742;2022-10-16T12:33:34;2.72;;;1.23;;
10045;SDS011;5063;50.878;4.742;2022-10-16T12:36:33;2.83;;;1.23;;
10045;SDS011;5063;50.878;4.742;2022-10-16T12:39:00;1.23;;;0.80;;
10045;SDS011;5063;50.878;4.742;2022-10-16T12:43:57;3.17;;;1.58;;
10045;SDS011;5063;50.878;4.742;2022-10-16T12:51:39;1.80;;;1.13;;
10045;SDS011;5063;50.878;4.742;2022-10-16T13:07:48;3.75;;;1.45;;
10045;SDS011;5063;50.878;4.742;2022-10-16T13:10:36;3.67;;;1.25;;
10045;SDS011;5063;50.878;4.742;2022-10-16T13:18:44;1.90;;;1.13;;
10045;SDS011;5063;50.878;4.742;2022-10-16T13:21:48;4.80;;;1.48;;
10045;SDS011;5063;50.878;4.742;2022-10-16T13:27:13;8.02;;;1.35;;
10045;SDS011;5063;50.878;4.742;2022-10-16T13:30:11;2.95;;;1.30;;
10045;SDS011;5063;50.878;4.742;2022-10-16T13:32:40;2.13;;;1.38;;
10045;SDS011;5063;50.878;4.742;2022-10-16T13:35:22;3.40;;;1.35;;
10045;SDS011;5063;50.878;4.742;2022-10-16T13:40:50;2.13;;;1.30;;
10045;SDS011;5063;50.878;4.742;2022-10-16T13:43:37;2.67;;;1.67;;
10045;SDS011;5063;50.878;4.742;2022-10-16T13:46:10;4.13;;;1.95;;
10045;SDS011;5063;50.878;4.742;2022-10-16T13:48:38;5.90;;;1.63;;
10045;SDS011;5063;50.878;4.742;2022-10-16T13:51:06;1.95;;;1.20;;
10045;SDS011;5063;50.878;4.742;2022-10-16T13:53:42;3.42;;;1.58;;
10045;SDS011;5063;50.878;4.742;2022-10-16T13:56:11;3.17;;;1.33;;
10045;SDS011;5063;50.878;4.742;2022-10-16T13:58:38;4.60;;;1.27;;
10045;SDS011;5063;50.878;4.742;2022-10-16T14:01:05;3.00;;;1.40;;
10045;SDS011;5063;50.878;4.742;2022-10-16T14:03:46;4.07;;;1.42;;
10045;SDS011;5063;50.878;4.742;2022-10-16T14:06:16;4.70;;;1.83;;
10045;SDS011;5063;50.878;4.742;2022-10-16T14:08:50;3.85;;;1.20;;
10045;SDS011;5063;50.878;4.742;2022-10-16T14:11:49;2.20;;;1.20;;
10045;SDS011;5063;50.878;4.742;2022-10-16T14:14:17;3.00;;;1.33;;
10045;SDS011;5063;50.878;4.742;2022-10-16T14:16:46;3.55;;;1.35;;
10045;SDS011;5063;50.878;4.742;2022-10-16T14:19:14;4.72;;;1.20;;
10045;SDS011;5063;50.878;4.742;2022-10-16T14:21:43;2.85;;;1.25;;
10045;SDS011;5063;50.878;4.742;2022-10-16T14:24:12;3.20;;;1.20;;
10045;SDS011;5063;50.878;4.742;2022-10-16T14:26:47;3.85;;;1.55;;
10045;SDS011;5063;50.878;4.742;2022-10-16T14:29:15;2.22;;;1.33;;
10045;SDS011;5063;50.878;4.742;2022-10-16T14:31:54;4.20;;;1.40;;
10045;SDS011;5063;50.878;4.742;2022-10-16T14:36:57;1.67;;;1.00;;
10045;SDS011;5063;50.878;4.742;2022-10-16T14:39:39;1.42;;;1.00;;
10045;SDS011;5063;50.878;4.742;2022-10-16T14:42:11;3.30;;;1.33;;
10045;SDS011;5063;50.878;4.742;2022-10-16T14:44:42;4.85;;;1.40;;
10045;SDS011;5063;50.878;4.742;2022-10-16T14:47:09;5.03;;;1.30;;
10045;SDS011;5063;50.878;4.742;2022-10-16T14:49:38;2.22;;;1.10;;
10045;SDS011;5063;50.878;4.742;2022-10-16T14:52:12;3.55;;;1.33;;
10045;SDS011;5063;50.878;4.742;2022-10-16T14:54:38;2.00;;;1.55;;
10045;SDS011;5063;50.878;4.742;2022-10-16T14:57:04;2.60;;;1.30;;
10045;SDS011;5063;50.878;4.742;2022-10-16T14:59:38;2.05;;;1.40;;
10045;SDS011;5063;50.878;4.742;2022-10-16T15:02:18;2.33;;;1.25;;
10045;SDS011;5063;50.878;4.742;2022-10-16T15:04:50;1.85;;;1.35;;
10045;SDS011;5063;50.878;4.742;2022-10-16T15:07:16;1.10;;;1.00;;
10045;SDS011;5063;50.878;4.742;2022-10-16T15:09:42;3.42;;;1.45;;
10045;SDS011;5063;50.878;4.742;2022-10-16T15:12:07;1.85;;;1.15;;
10045;SDS011;5063;50.878;4.742;2022-10-16T15:14:33;1.90;;;1.05;;
10045;SDS011;5063;50.878;4.742;2022-10-16T15:16:59;1.80;;;1.15;;
10045;SDS011;5063;50.878;4.742;2022-10-16T15:19:25;3.08;;;1.42;;
10045;SDS011;5063;50.878;4.742;2022-10-16T15:21:50;2.03;;;1.30;;
10045;SDS011;5063;50.878;4.742;2022-10-16T15:24:17;3.60;;;1.40;;
10045;SDS011;5063;50.878;4.742;2022-10-16T15:26:43;3.00;;;1.35;;
10045;SDS011;5063;50.878;4.742;2022-10-16T15:29:11;4.97;;;1.50;;
10045;SDS011;5063;50.878;4.742;2022-10-16T15:31:37;2.55;;;1.42;;
10045;SDS011;5063;50.878;4.742;2022-10-16T15:34:03;3.22;;;0.93;;
10045;SDS011;5063;50.878;4.742;2022-10-16T15:36:34;1.20;;;1.05;;
10045;SDS011;5063;50.878;4.742;2022-10-16T15:39:05;2.58;;;1.02;;
10045;SDS011;5063;50.878;4.742;2022-10-16T15:41:38;4.78;;;1.08;;
10045;SDS011;5063;50.878;4.742;2022-10-16T15:44:04;2.00;;;1.30;;
10045;SDS011;5063;50.878;4.742;2022-10-16T15:46:30;1.85;;;1.33;;
10045;SDS011;5063;50.878;4.742;2022-10-16T15:48:56;2.00;;;1.43;;
10045;SDS011;5063;50.878;4.742;2022-10-16T15:51:23;3.95;;;1.55;;
10045;SDS011;5063;50.878;4.742;2022-10-16T15:53:49;3.17;;;1.35;;
10045;SDS011;5063;50.878;4.742;2022-10-16T15:56:16;1.20;;;1.10;;
10045;SDS011;5063;50.878;4.742;2022-10-16T15:58:42;2.73;;;1.30;;
10045;SDS011;5063;50.878;4.742;2022-10-16T16:01:08;5.40;;;1.33;;
10045;SDS011;5063;50.878;4.742;2022-10-16T16:03:36;2.97;;;1.30;;
10045;SDS011;5063;50.878;4.742;2022-10-16T16:06:05;4.63;;;1.33;;
10045;SDS011;5063;50.878;4.742;2022-10-16T16:08:32;1.30;;;1.10;;
10045;SDS011;5063;50.878;4.742;2022-10-16T16:10:59;2.30;;;1.13;;
10045;SDS011;5063;50.878;4.742;2022-10-16T16:13:26;1.73;;;0.87;;
10045;SDS011;5063;50.878;4.742;2022-10-16T16:15:52;2.17;;;1.10;;
10045;SDS011;5063;50.878;4.742;2022-10-16T16:18:18;3.07;;;1.23;;
10045;SDS011;5063;50.878;4.742;2022-10-16T16:20:44;3.37;;;1.30;;
10045;SDS011;5063;50.878;4.742;2022-10-16T16:23:10;2.80;;;1.17;;
10045;SDS011;5063;50.878;4.742;2022-10-16T16:25:35;2.37;;;1.50;;
10045;SDS011;5063;50.878;4.742;2022-10-16T16:28:01;2.63;;;1.60;;
10045;SDS011;5063;50.878;4.742;2022-10-16T16:30:27;1.10;;;1.00;;
10045;SDS011;5063;50.878;4.742;2022-10-16T16:32:53;1.20;;;1.00;;
10045;SDS011;5063;50.878;4.742;2022-10-16T16:35:18;2.40;;;1.20;;
10045;SDS011;5063;50.878;4.742;2022-10-16T16:37:44;3.30;;;1.30;;
10045;SDS011;5063;50.878;4.742;2022-10-16T16:40:12;4.97;;;1.60;;
10045;SDS011;5063;50.878;4.742;2022-10-16T16:42:38;2.80;;;1.17;;
10045;SDS011;5063;50.878;4.742;2022-10-16T16:45:04;3.70;;;1.50;;
10045;SDS011;5063;50.878;4.742;2022-10-16T16:47:30;2.90;;;1.40;;
10045;SDS011;5063;50.878;4.742;2022-10-16T16:49:56;4.43;;;2.00;;
10045;SDS011;5063;50.878;4.742;2022-10-16T16:52:21;1.57;;;1.27;;
10045;SDS011;5063;50.878;4.742;2022-10-16T16:54:47;2.17;;;1.40;;
10045;SDS011;5063;50.878;4.742;2022-10-16T16:57:17;2.10;;;1.37;;
10045;SDS011;5063;50.878;4.742;2022-10-16T16:59:44;1.43;;;1.30;;
10045;SDS011;5063;50.878;4.742;2022-10-16T17:02:10;2.07;;;1.53;;
10045;SDS011;5063;50.878;4.742;2022-10-16T17:04:35;1.67;;;1.50;;
10045;SDS011;5063;50.878;4.742;2022-10-16T17:07:01;2.07;;;1.67;;
10045;SDS011;5063;50.878;4.742;2022-10-16T17:09:27;3.70;;;1.70;;
10045;SDS011;5063;50.878;4.742;2022-10-16T17:11:53;2.40;;;1.90;;
10045;SDS011;5063;50.878;4.742;2022-10-16T17:14:19;4.17;;;1.53;;
10045;SDS011;5063;50.878;4.742;2022-10-16T17:16:45;2.90;;;1.90;;
10045;SDS011;5063;50.878;4.742;2022-10-16T17:19:16;2.97;;;1.63;;